createdAt,value
2017-10-26T00:00:42.066Z,22.87
2017-10-26T00:03:07.804Z,22.17
2017-10-26T00:05:33.671Z,23.40
2017-10-26T00:07:59.415Z,22.23
2017-10-26T00:10:25.156Z,19.53
2017-10-26T00:12:50.947Z,22.13
2017-10-26T00:15:16.707Z,19.60
2017-10-26T00:17:42.467Z,17.00
2017-10-26T00:20:08.228Z,17.60
2017-10-26T00:22:33.983Z,18.40
2017-10-26T00:24:59.743Z,16.17
2017-10-26T00:27:25.499Z,20.43
2017-10-26T00:29:51.259Z,25.83
2017-10-26T00:32:17.027Z,20.50
2017-10-26T00:34:42.786Z,16.93
2017-10-26T00:37:08.543Z,19.47
2017-10-26T00:39:34.310Z,17.73
2017-10-26T00:42:00.176Z,17.37
2017-10-26T00:44:26.802Z,15.60
2017-10-26T00:46:52.576Z,23.27
2017-10-26T00:49:18.321Z,17.60
2017-10-26T00:51:44.081Z,11.40
2017-10-26T00:54:09.880Z,21.53
2017-10-26T00:56:35.684Z,13.97
2017-10-26T00:59:01.431Z,16.77
2017-10-26T01:01:27.208Z,17.97
2017-10-26T01:03:52.989Z,15.47
2017-10-26T01:06:18.763Z,25.63
2017-10-26T01:08:44.519Z,20.67
2017-10-26T01:11:10.263Z,20.83
2017-10-26T01:13:36.042Z,16.33
2017-10-26T01:16:01.782Z,18.27
2017-10-26T01:18:27.578Z,18.27
2017-10-26T01:20:53.343Z,15.33
2017-10-26T01:23:19.094Z,19.43
2017-10-26T01:25:44.898Z,17.30
2017-10-26T01:28:10.688Z,20.73
2017-10-26T01:30:36.438Z,26.70
2017-10-26T01:33:02.201Z,20.50
2017-10-26T01:35:27.972Z,23.47
2017-10-26T01:37:53.750Z,18.17
2017-10-26T01:40:19.523Z,18.07
2017-10-26T01:42:45.354Z,24.70
2017-10-26T01:45:11.139Z,20.37
2017-10-26T01:47:36.923Z,17.37
2017-10-26T01:50:02.677Z,19.57
2017-10-26T01:52:28.556Z,21.40
2017-10-26T01:54:54.320Z,22.13
2017-10-26T01:57:20.106Z,21.70
2017-10-26T01:59:45.868Z,23.43
2017-10-26T02:02:11.644Z,28.67
2017-10-26T02:04:37.470Z,38.97
2017-10-26T02:07:03.299Z,114.33
2017-10-26T02:09:29.085Z,21.30
2017-10-26T02:11:54.867Z,22.63
2017-10-26T02:14:20.643Z,228.20
2017-10-26T02:16:46.408Z,431.57
2017-10-26T02:19:12.167Z,189.77
2017-10-26T02:21:37.951Z,182.10
2017-10-26T02:24:03.725Z,43.33
2017-10-26T02:26:29.503Z,69.63
2017-10-26T02:29:07.815Z,28.77
2017-10-26T02:31:33.636Z,33.58
2017-10-26T02:33:59.379Z,27.63
2017-10-26T02:36:25.183Z,31.87
2017-10-26T02:38:50.960Z,38.27
2017-10-26T02:41:16.721Z,28.27
2017-10-26T02:43:42.496Z,30.43
2017-10-26T02:46:08.292Z,53.50
2017-10-26T02:48:34.071Z,34.60
2017-10-26T02:50:59.839Z,70.37
2017-10-26T02:53:25.591Z,29.07
2017-10-26T02:55:51.346Z,34.93
2017-10-26T02:58:17.112Z,25.70
2017-10-26T03:00:42.908Z,29.73
2017-10-26T03:03:08.740Z,27.43
2017-10-26T03:05:34.535Z,29.07
2017-10-26T03:08:00.332Z,28.33
2017-10-26T03:10:26.087Z,47.20
2017-10-26T03:12:51.908Z,28.60
2017-10-26T03:15:17.663Z,52.50
2017-10-26T03:17:43.417Z,41.17
2017-10-26T03:20:09.236Z,64.27
2017-10-26T03:22:37.067Z,46.40
2017-10-26T03:25:02.941Z,220.20
2017-10-26T03:27:28.711Z,52.30
2017-10-26T03:29:54.480Z,30.30
2017-10-26T03:32:20.232Z,35.47
2017-10-26T03:34:46.005Z,28.63
2017-10-26T03:37:11.783Z,25.20
2017-10-26T03:39:37.523Z,30.23
2017-10-26T03:42:03.312Z,28.43
2017-10-26T03:44:29.064Z,23.73
2017-10-26T03:46:54.882Z,25.90
2017-10-26T03:49:20.651Z,24.20
2017-10-26T03:51:46.398Z,18.50
2017-10-26T03:54:12.152Z,21.77
2017-10-26T03:56:38.010Z,24.73
2017-10-26T03:59:03.786Z,16.90
2017-10-26T04:01:29.538Z,20.77
2017-10-26T04:03:55.295Z,20.60
2017-10-26T04:06:21.096Z,20.53
2017-10-26T04:08:46.838Z,22.60
2017-10-26T04:11:12.639Z,23.93
2017-10-26T04:13:38.419Z,23.53
2017-10-26T04:16:04.211Z,24.10
2017-10-26T04:18:30.005Z,22.57
2017-10-26T04:20:55.779Z,27.03
2017-10-26T04:23:21.586Z,23.03
2017-10-26T04:25:47.401Z,24.97
2017-10-26T04:28:13.251Z,35.43
2017-10-26T04:30:39.018Z,26.30
2017-10-26T04:33:04.940Z,28.73
2017-10-26T04:35:30.765Z,21.67
2017-10-26T04:37:56.534Z,26.60
2017-10-26T04:40:22.314Z,27.73
2017-10-26T04:42:48.083Z,40.50
2017-10-26T04:45:13.872Z,25.50
2017-10-26T04:47:39.706Z,25.20
2017-10-26T04:50:05.463Z,22.10
2017-10-26T04:52:31.224Z,21.17
2017-10-26T04:54:57.896Z,27.67
2017-10-26T04:57:23.666Z,23.60
2017-10-26T04:59:49.443Z,23.10
2017-10-26T05:02:15.216Z,19.70
2017-10-26T05:04:41.026Z,18.13
2017-10-26T05:07:06.789Z,21.43
2017-10-26T05:09:32.557Z,32.93
2017-10-26T05:11:58.302Z,16.10
2017-10-26T05:14:24.082Z,31.13
2017-10-26T05:16:49.848Z,20.90
2017-10-26T05:19:15.619Z,24.17
2017-10-26T05:21:41.368Z,27.03
2017-10-26T05:24:07.143Z,18.40
2017-10-26T05:26:32.905Z,17.53
2017-10-26T05:28:58.679Z,15.87
2017-10-26T05:31:24.435Z,13.03
2017-10-26T05:33:50.217Z,18.37
2017-10-26T05:36:15.998Z,18.90
2017-10-26T05:38:41.755Z,21.10
2017-10-26T05:41:07.713Z,22.83
2017-10-26T05:43:33.504Z,25.77
2017-10-26T05:45:59.275Z,22.50
2017-10-26T05:48:25.060Z,83.70
2017-10-26T05:50:50.864Z,72.37
2017-10-26T05:53:16.632Z,283.13
2017-10-26T05:55:42.409Z,348.90
2017-10-26T05:58:08.193Z,64.60
2017-10-26T06:00:33.959Z,135.27
2017-10-26T06:02:59.727Z,170.90
2017-10-26T06:05:25.480Z,88.13
2017-10-26T06:07:51.255Z,271.97
2017-10-26T06:10:17.054Z,30.13
2017-10-26T06:12:42.794Z,17.60
2017-10-26T06:15:08.571Z,17.70
2017-10-26T06:17:34.318Z,14.27
2017-10-26T06:20:00.063Z,12.60
2017-10-26T06:22:25.831Z,9.30
2017-10-26T06:24:51.583Z,10.40
2017-10-26T06:27:17.427Z,11.60
2017-10-26T06:29:43.184Z,10.30
2017-10-26T06:32:08.954Z,11.37
2017-10-26T06:34:34.742Z,15.20
2017-10-26T06:37:00.536Z,11.53
2017-10-26T06:39:26.290Z,11.60
2017-10-26T06:41:52.044Z,14.20
2017-10-26T06:44:17.808Z,15.43
2017-10-26T06:46:43.565Z,16.33
2017-10-26T06:49:09.364Z,8.47
2017-10-26T06:51:35.118Z,52.03
2017-10-26T06:54:00.874Z,14.23
2017-10-26T06:56:26.655Z,35.23
2017-10-26T06:58:52.438Z,32.30
2017-10-26T07:01:18.200Z,49.03
2017-10-26T07:03:43.957Z,58.83
2017-10-26T07:06:09.769Z,60.10
2017-10-26T07:08:35.555Z,36.57
2017-10-26T07:11:01.299Z,61.63
2017-10-26T07:13:27.064Z,149.00
2017-10-26T07:15:52.832Z,85.97
2017-10-26T07:18:18.600Z,115.53
2017-10-26T07:20:44.339Z,196.80
2017-10-26T07:23:10.106Z,119.23
2017-10-26T07:25:35.858Z,197.03
2017-10-26T07:28:01.635Z,156.47
2017-10-26T07:30:27.373Z,189.80
2017-10-26T07:32:53.152Z,191.17
2017-10-26T07:35:18.927Z,65.03
2017-10-26T07:37:44.670Z,76.37
2017-10-26T07:40:10.469Z,56.97
2017-10-26T07:42:36.231Z,65.13
2017-10-26T07:45:02.023Z,53.57
2017-10-26T07:47:27.823Z,69.80
2017-10-26T07:49:53.590Z,54.17
2017-10-26T07:52:19.351Z,48.43
2017-10-26T07:54:45.118Z,42.37
2017-10-26T07:57:10.899Z,43.07
2017-10-26T07:59:36.643Z,53.43
2017-10-26T08:02:02.428Z,28.23
2017-10-26T08:04:28.216Z,92.80
2017-10-26T08:06:53.964Z,46.73
2017-10-26T08:09:19.735Z,13.70
2017-10-26T08:11:45.507Z,9.33
2017-10-26T08:14:11.304Z,42.13
2017-10-26T08:16:37.056Z,25.17
2017-10-26T08:19:02.817Z,30.43
2017-10-26T08:21:28.621Z,11.40
2017-10-26T08:23:54.366Z,27.47
2017-10-26T08:26:20.161Z,20.80
2017-10-26T08:28:45.962Z,12.47
2017-10-26T08:31:11.709Z,16.53
2017-10-26T08:33:37.495Z,10.00
2017-10-26T08:36:03.310Z,13.77
2017-10-26T08:38:29.089Z,36.47
2017-10-26T08:40:54.863Z,92.03
2017-10-26T08:43:20.608Z,13.50
2017-10-26T08:45:46.425Z,19.23
2017-10-26T08:48:12.167Z,34.03
2017-10-26T08:50:37.956Z,11.70
2017-10-26T08:53:03.778Z,10.43
2017-10-26T08:55:29.539Z,12.90
2017-10-26T08:57:55.283Z,17.17
2017-10-26T09:00:21.123Z,23.63
2017-10-26T09:02:46.933Z,15.87
2017-10-26T09:05:12.733Z,12.10
2017-10-26T09:07:38.507Z,24.93
2017-10-26T09:10:04.272Z,18.17
2017-10-26T09:12:30.055Z,11.50
2017-10-26T09:14:55.848Z,11.43
2017-10-26T09:17:21.623Z,10.20
2017-10-26T09:19:47.411Z,9.13
2017-10-26T09:22:13.172Z,7.10
2017-10-26T09:24:38.938Z,10.63
2017-10-26T09:27:04.728Z,6.30
2017-10-26T09:29:30.543Z,8.53
2017-10-26T09:31:56.306Z,7.47
2017-10-26T09:34:22.094Z,5.70
2017-10-26T09:36:47.876Z,5.67
2017-10-26T09:39:13.619Z,5.70
2017-10-26T09:41:39.404Z,6.53
2017-10-26T09:44:05.187Z,7.33
2017-10-26T09:46:30.948Z,6.27
2017-10-26T09:48:56.750Z,5.70
2017-10-26T09:51:22.512Z,4.83
2017-10-26T09:53:48.436Z,5.77
2017-10-26T09:56:14.207Z,6.00
2017-10-26T09:58:40.007Z,5.37
2017-10-26T10:01:05.808Z,4.17
2017-10-26T10:03:31.599Z,7.33
2017-10-26T10:05:57.380Z,5.30
2017-10-26T10:08:23.152Z,6.80
2017-10-26T10:10:48.957Z,4.93
2017-10-26T10:13:14.727Z,14.07
2017-10-26T10:15:40.522Z,3.90
2017-10-26T10:18:06.298Z,4.00
2017-10-26T10:20:32.107Z,5.40
2017-10-26T10:22:57.896Z,3.53
2017-10-26T10:25:23.714Z,4.10
2017-10-26T10:27:49.504Z,5.07
2017-10-26T10:30:15.279Z,4.90
2017-10-26T10:32:41.089Z,4.23
2017-10-26T10:35:06.859Z,12.80
2017-10-26T10:37:32.638Z,6.87
2017-10-26T10:39:58.406Z,7.20
2017-10-26T10:42:24.206Z,9.00
2017-10-26T10:44:50.023Z,7.20
2017-10-26T10:47:15.827Z,4.10
2017-10-26T10:49:41.619Z,10.43
2017-10-26T10:52:07.416Z,5.90
2017-10-26T10:54:33.212Z,7.80
2017-10-26T10:56:59.019Z,6.33
2017-10-26T10:59:31.028Z,9.80
2017-10-26T11:01:56.827Z,9.37
2017-10-26T11:04:22.585Z,7.77
2017-10-26T11:06:48.344Z,4.87
2017-10-26T11:09:14.143Z,4.37
2017-10-26T11:11:39.911Z,8.80
2017-10-26T11:14:05.681Z,5.60
2017-10-26T11:16:31.489Z,7.67
2017-10-26T11:18:57.252Z,7.20
2017-10-26T11:21:23.045Z,5.93
2017-10-26T11:23:48.799Z,6.40
2017-10-26T11:26:14.590Z,7.20
2017-10-26T11:28:40.335Z,5.77
2017-10-26T11:31:06.141Z,10.87
2017-10-26T11:33:31.920Z,6.10
2017-10-26T11:35:57.687Z,10.20
2017-10-26T11:38:23.487Z,8.10
2017-10-26T11:40:49.294Z,5.27
2017-10-26T11:43:15.092Z,7.43
2017-10-26T11:45:40.872Z,7.30
2017-10-26T11:48:06.646Z,5.90
2017-10-26T11:50:32.479Z,6.37
2017-10-26T11:52:58.248Z,9.37
2017-10-26T11:55:24.023Z,10.60
2017-10-26T11:57:49.854Z,7.47
2017-10-26T12:00:15.709Z,7.63
2017-10-26T12:02:41.499Z,11.70
2017-10-26T12:05:07.284Z,6.43
2017-10-26T12:07:33.080Z,7.80
2017-10-26T12:09:58.852Z,4.90
2017-10-26T12:12:24.642Z,6.70
2017-10-26T12:14:50.447Z,4.77
2017-10-26T12:17:16.207Z,4.43
2017-10-26T12:19:42.008Z,5.97
2017-10-26T12:22:07.777Z,6.30
2017-10-26T12:24:33.558Z,8.47
2017-10-26T12:26:59.360Z,10.80
2017-10-26T12:29:25.126Z,7.93
2017-10-26T12:31:50.910Z,7.43
2017-10-26T12:34:16.745Z,38.03
2017-10-26T12:36:42.590Z,11.37
2017-10-26T12:39:08.409Z,14.47
2017-10-26T12:41:34.163Z,6.80
2017-10-26T12:43:59.951Z,142.97
2017-10-26T12:46:25.759Z,31.67
2017-10-26T12:48:51.535Z,101.67
2017-10-26T12:51:17.307Z,30.63
2017-10-26T12:53:43.154Z,20.23
2017-10-26T12:56:09.087Z,44.03
2017-10-26T12:58:34.871Z,109.73
2017-10-26T13:01:00.663Z,153.03
2017-10-26T13:03:26.491Z,34.13
2017-10-26T13:05:52.251Z,6.30
2017-10-26T13:08:18.052Z,12.60
2017-10-26T13:10:43.812Z,3.87
2017-10-26T13:13:09.640Z,6.80
2017-10-26T13:15:35.422Z,4.83
2017-10-26T13:18:01.207Z,7.17
2017-10-26T13:20:26.992Z,17.43
2017-10-26T13:22:52.786Z,5.57
2017-10-26T13:25:18.612Z,5.47
2017-10-26T13:27:44.371Z,6.90
2017-10-26T13:30:10.147Z,4.70
2017-10-26T13:32:35.911Z,5.90
2017-10-26T13:35:01.674Z,4.10
2017-10-26T13:37:27.440Z,9.27
2017-10-26T13:39:53.199Z,4.60
2017-10-26T13:42:19.043Z,5.60
2017-10-26T13:44:44.834Z,5.33
2017-10-26T13:47:11.783Z,11.20
2017-10-26T13:49:37.552Z,3.23
2017-10-26T13:52:03.303Z,3.10
2017-10-26T13:54:29.198Z,5.90
2017-10-26T13:56:54.986Z,2.80
2017-10-26T13:59:20.752Z,4.70
2017-10-26T14:01:46.581Z,4.87
2017-10-26T14:04:12.337Z,3.27
2017-10-26T14:06:38.164Z,5.27
2017-10-26T14:09:04.035Z,6.03
2017-10-26T14:11:29.793Z,4.50
2017-10-26T14:13:55.579Z,4.23
2017-10-26T14:16:21.407Z,5.63
2017-10-26T14:18:47.148Z,8.60
2017-10-26T14:21:12.943Z,5.87
2017-10-26T14:23:38.767Z,9.70
2017-10-26T14:26:04.588Z,7.63
2017-10-26T14:28:30.403Z,9.93
2017-10-26T14:30:56.163Z,6.30
2017-10-26T14:33:21.946Z,9.43
2017-10-26T14:35:47.777Z,6.43
2017-10-26T14:38:13.535Z,8.73
2017-10-26T14:40:39.332Z,5.03
2017-10-26T14:43:05.114Z,8.60
2017-10-26T14:45:30.880Z,14.23
2017-10-26T14:47:56.644Z,7.03
2017-10-26T14:50:22.395Z,13.23
2017-10-26T14:52:48.188Z,9.07
2017-10-26T14:55:13.987Z,6.07
2017-10-26T14:57:39.728Z,6.70
2017-10-26T15:00:05.486Z,9.93
2017-10-26T15:02:31.248Z,9.80
2017-10-26T15:04:57.017Z,6.43
2017-10-26T15:07:22.798Z,10.13
2017-10-26T15:09:48.559Z,6.70
2017-10-26T15:12:14.327Z,7.07
2017-10-26T15:14:40.090Z,7.60
2017-10-26T15:17:05.889Z,12.13
2017-10-26T15:19:31.636Z,5.30
2017-10-26T15:21:57.401Z,6.37
2017-10-26T15:24:23.325Z,8.03
2017-10-26T15:26:49.775Z,9.20
2017-10-26T15:29:16.931Z,5.43
2017-10-26T15:31:44.123Z,4.90
2017-10-26T15:34:11.729Z,7.43
2017-10-26T15:36:39.458Z,150.90
2017-10-26T15:39:06.484Z,43.83
2017-10-26T15:41:33.155Z,7.03
2017-10-26T15:43:59.217Z,8.07
2017-10-26T15:46:24.982Z,10.33
2017-10-26T15:48:50.822Z,11.30
2017-10-26T15:51:16.603Z,12.90
2017-10-26T15:53:42.467Z,7.63
2017-10-26T15:56:08.458Z,7.40
2017-10-26T15:58:38.138Z,12.73
2017-10-26T16:01:03.894Z,5.97
2017-10-26T16:03:29.642Z,8.97
2017-10-26T16:05:55.419Z,7.43
2017-10-26T16:08:21.199Z,7.43
2017-10-26T16:10:46.964Z,13.47
2017-10-26T16:13:12.715Z,7.90
2017-10-26T16:15:38.487Z,7.47
2017-10-26T16:18:04.273Z,12.30
2017-10-26T16:20:30.020Z,11.47
2017-10-26T16:22:56.238Z,13.00
2017-10-26T16:25:22.024Z,13.00
2017-10-26T16:27:47.791Z,11.80
2017-10-26T16:30:13.558Z,8.00
2017-10-26T16:32:39.316Z,8.23
2017-10-26T16:35:05.107Z,7.17
2017-10-26T16:37:30.879Z,11.93
2017-10-26T16:39:56.623Z,8.40
2017-10-26T16:42:22.382Z,11.60
2017-10-26T16:44:48.152Z,31.13
2017-10-26T16:47:14.022Z,8.50
2017-10-26T16:49:39.850Z,11.13
2017-10-26T16:52:05.646Z,7.80
2017-10-26T16:54:31.436Z,8.77
2017-10-26T16:56:57.195Z,17.60
2017-10-26T16:59:23.003Z,9.70
2017-10-26T17:01:48.763Z,14.37
2017-10-26T17:04:14.554Z,12.40
2017-10-26T17:06:40.304Z,9.43
2017-10-26T17:09:06.079Z,13.73
2017-10-26T17:11:31.835Z,9.60
2017-10-26T17:13:57.590Z,16.43
2017-10-26T17:16:23.368Z,18.60
2017-10-26T17:18:49.139Z,10.53
2017-10-26T17:21:14.899Z,8.53
2017-10-26T17:23:40.681Z,10.27
2017-10-26T17:28:47.437Z,12.63
2017-10-26T17:31:13.200Z,17.17
2017-10-26T17:33:38.988Z,10.90
2017-10-26T17:36:04.746Z,13.10
2017-10-26T17:38:30.523Z,9.40
2017-10-26T17:40:56.335Z,8.87
2017-10-26T17:43:22.101Z,11.80
2017-10-26T17:45:47.866Z,12.17
2017-10-26T17:48:13.688Z,17.50
2017-10-26T17:50:39.451Z,7.93
2017-10-26T17:53:05.235Z,14.33
2017-10-26T17:55:31.000Z,9.77
2017-10-26T17:57:56.783Z,9.40
2017-10-26T18:00:22.563Z,11.13
2017-10-26T18:02:48.330Z,9.20
2017-10-26T18:05:14.103Z,9.37
2017-10-26T18:07:39.896Z,12.57
2017-10-26T18:10:05.691Z,13.30
2017-10-26T18:12:31.452Z,9.37
2017-10-26T18:14:57.235Z,10.53
2017-10-26T18:17:23.021Z,12.00
2017-10-26T18:19:48.787Z,8.20
2017-10-26T18:22:14.544Z,12.77
2017-10-26T18:24:40.303Z,12.13
2017-10-26T18:27:06.105Z,15.30
2017-10-26T18:29:31.843Z,20.67
2017-10-26T18:31:57.596Z,12.77
2017-10-26T18:34:23.368Z,11.73
2017-10-26T18:36:49.147Z,14.93
2017-10-26T18:39:14.907Z,13.13
2017-10-26T18:41:40.670Z,11.97
2017-10-26T18:44:06.455Z,9.37
2017-10-26T18:46:32.201Z,11.77
2017-10-26T18:48:57.971Z,19.87
2017-10-26T18:51:23.743Z,14.20
2017-10-26T18:53:49.514Z,13.03
2017-10-26T18:56:15.279Z,15.20
2017-10-26T18:58:41.067Z,19.10
2017-10-26T19:01:06.804Z,11.90
2017-10-26T19:03:32.580Z,13.77
2017-10-26T19:05:58.363Z,13.20
2017-10-26T19:08:24.122Z,22.77
2017-10-26T19:10:49.890Z,14.13
2017-10-26T19:13:16.747Z,13.40
2017-10-26T19:15:42.495Z,14.20
2017-10-26T19:18:08.304Z,12.97
2017-10-26T19:20:34.060Z,12.10
2017-10-26T19:22:59.838Z,12.10
2017-10-26T19:25:25.584Z,10.70
2017-10-26T19:27:51.343Z,10.33
2017-10-26T19:30:17.125Z,16.00
2017-10-26T19:32:42.886Z,10.50
2017-10-26T19:35:08.667Z,12.53
2017-10-26T19:37:34.434Z,9.63
2017-10-26T19:40:00.176Z,15.40
2017-10-26T19:42:25.953Z,12.70
2017-10-26T19:44:51.748Z,13.93
2017-10-26T19:47:17.507Z,13.43
2017-10-26T19:49:43.268Z,15.83
2017-10-26T19:52:09.044Z,18.23
2017-10-26T19:54:34.791Z,16.27
2017-10-26T19:57:00.582Z,12.30
2017-10-26T19:59:26.335Z,15.93
2017-10-26T20:01:52.095Z,13.63
2017-10-26T20:04:17.873Z,21.13
2017-10-26T20:06:43.619Z,21.10
2017-10-26T20:09:09.406Z,79.77
2017-10-26T20:11:35.169Z,23.00
2017-10-26T20:14:00.928Z,17.07
2017-10-26T20:16:26.699Z,16.10
2017-10-26T20:18:52.502Z,19.47
2017-10-26T20:21:18.296Z,14.73
2017-10-26T20:23:44.098Z,14.70
2017-10-26T20:26:09.858Z,18.80
2017-10-26T20:28:35.648Z,18.07
2017-10-26T20:31:01.472Z,14.10
2017-10-26T20:33:27.319Z,12.90
2017-10-26T20:35:53.079Z,16.40
2017-10-26T20:38:18.867Z,18.00
2017-10-26T20:40:44.631Z,16.97
2017-10-26T20:43:10.362Z,17.00
2017-10-26T20:45:36.165Z,19.33
2017-10-26T20:48:01.974Z,16.00
2017-10-26T20:53:32.645Z,15.87
2017-10-26T20:56:04.463Z,24.33
2017-10-26T20:58:36.468Z,19.53
2017-10-26T21:01:08.399Z,14.10
2017-10-26T21:03:40.163Z,20.63
2017-10-26T21:06:12.171Z,22.17
2017-10-26T21:08:44.124Z,17.70
2017-10-26T21:11:16.093Z,14.63
2017-10-26T21:13:47.949Z,15.63
2017-10-26T21:16:13.719Z,17.80
2017-10-26T21:18:39.543Z,12.63
2017-10-26T21:21:05.288Z,21.50
2017-10-26T21:23:31.087Z,9.90
2017-10-26T21:25:56.939Z,12.63
2017-10-26T21:28:22.698Z,25.83
2017-10-26T21:30:48.468Z,30.57
2017-10-26T21:33:14.236Z,17.80
2017-10-26T21:35:39.999Z,25.40
2017-10-26T21:38:05.867Z,23.40
2017-10-26T21:40:31.611Z,13.57
2017-10-26T21:42:57.392Z,22.60
2017-10-26T21:45:23.155Z,20.00
2017-10-26T21:47:48.890Z,23.43
2017-10-26T21:50:14.648Z,20.80
2017-10-26T21:52:40.427Z,18.50
2017-10-26T21:55:06.172Z,12.23
2017-10-26T21:57:31.976Z,13.97
2017-10-26T21:59:57.734Z,18.40
2017-10-26T22:02:23.587Z,15.27
2017-10-26T22:04:49.455Z,14.40
2017-10-26T22:07:15.223Z,16.80
2017-10-26T22:09:41.075Z,15.53
2017-10-26T22:12:06.835Z,18.10
2017-10-26T22:14:32.600Z,24.43
2017-10-26T22:16:58.359Z,20.87
2017-10-26T22:19:24.128Z,17.63
2017-10-26T22:21:49.867Z,15.80
2017-10-26T22:24:15.714Z,19.17
2017-10-26T22:26:41.502Z,26.73
2017-10-26T22:29:07.271Z,16.00
2017-10-26T22:31:33.040Z,17.37
2017-10-26T22:33:58.823Z,25.30
2017-10-26T22:36:24.576Z,15.03
2017-10-26T22:38:50.328Z,21.20
2017-10-26T22:41:16.112Z,17.93
2017-10-26T22:43:41.887Z,18.10
2017-10-26T22:46:07.681Z,16.07
2017-10-26T22:48:33.451Z,14.97
2017-10-26T22:50:59.216Z,15.47
2017-10-26T22:53:25.007Z,14.20
2017-10-26T22:55:50.834Z,17.63
2017-10-26T22:58:16.580Z,28.57
2017-10-26T23:00:42.380Z,23.27
2017-10-26T23:03:08.127Z,36.43
2017-10-26T23:05:33.862Z,27.03
2017-10-26T23:07:59.664Z,38.13
2017-10-26T23:10:25.428Z,63.93
2017-10-26T23:12:51.168Z,70.57
2017-10-26T23:15:17.028Z,87.70
2017-10-26T23:17:42.775Z,65.93
2017-10-26T23:20:08.547Z,67.03
2017-10-26T23:22:34.319Z,92.60
2017-10-26T23:25:00.125Z,107.90
2017-10-26T23:27:25.884Z,132.80
2017-10-26T23:29:51.667Z,81.57
2017-10-26T23:32:17.425Z,146.23
2017-10-26T23:34:43.195Z,88.10
2017-10-26T23:37:09.027Z,194.07
2017-10-26T23:39:34.846Z,96.30
2017-10-26T23:42:00.607Z,172.17
2017-10-26T23:44:26.368Z,94.67
2017-10-26T23:46:52.147Z,107.00
2017-10-26T23:49:17.896Z,97.03
2017-10-26T23:51:43.650Z,258.80
2017-10-26T23:54:09.518Z,469.70
2017-10-26T23:56:35.259Z,77.40
2017-10-26T23:59:01.006Z,222.67
